Airfield :
LOGIN :

Register | Disclaimer

   EN    FR    IT 

 










Legend :    VFR   Marginal VFR   IFR   Intensive IFR   Very Intensive IFR
Visi :
Ceiling :
>= 8 km
>= 3000ft
5 to 8 km
1000 to 3000 ft
1500m to 5 km
500 to 1000 ft
800 to 1500m
200 to 500 ft
< 800m
< 200 ft
Symbols :   Thunderstorms  Fog  Heavy snow  Heavy precipitations  Wind > 20 kt
SIGMETs :     Misc.  Thunderstorms  Icing  Turbulence  Mountain Waves  Volcanic Ashes







- Airport Elevation : 24 ft
- IATA code : IBZ


LEIB - Ibiza

CURRENT METAR :
  • 162200Z 00000KT 9999 FEW020 BKN028 19/16 Q1025 NOSIG

EXPIRED METARs :
  • 162130Z 00000KT 9999 FEW020 BKN025 20/17 Q1025 NOSIG
  • 162030Z 01005KT 340V040 9999 FEW019 SCT024 21/17 Q1025 NOSIG
  • 162000Z 03006KT 9999 FEW019 SCT024 21/17 Q1024 NOSIG
  • 161930Z 03008G18KT 350V050 9999 FEW021 SCT024 21/16 Q1024 NOSIG

TAF AMD TAF LEIB
Valid from the 16 at 21:00 until the 17 at 21:00 UTC


162130Z 1621/1721 02005KT 9999 SCT025 TX26/1712Z TN16/1706Z
BECMG 1709/1712 13006KT
No reported NOTAMs for that airfield.



MET'MAP, your aeronautical weather chart ! - Copyright ORBIFLY December 2007 - Disclaimer

ORBIFLY MET'MAP TEAM :

Programming & Development : Alexandra Zaïnal
Concept & Development : Baudouin d'Aumeries
Co-Development & Prog : Marc-Olivier Méhu
Technical & hardware support : Manuel Goepfert

Contact : metmap@orbifly.com




SOURCES & CREDITS :

   NOAA